createdAt,value
2023-01-07T00:02:57.378Z,8.74
2023-01-07T00:07:59.362Z,8.72
2023-01-07T00:13:00.030Z,8.98
2023-01-07T00:18:02.035Z,8.99
2023-01-07T00:23:03.174Z,9.05
2023-01-07T00:28:03.958Z,9.09
2023-01-07T00:33:07.254Z,9.06
2023-01-07T00:38:08.129Z,9.13
2023-01-07T00:43:08.820Z,9.15
2023-01-07T00:48:11.330Z,9.17
2023-01-07T00:53:12.875Z,9.20
2023-01-07T00:58:16.390Z,9.14
2023-01-07T01:03:19.456Z,9.14
2023-01-07T01:08:21.260Z,9.10
2023-01-07T01:13:22.186Z,9.09
2023-01-07T01:18:24.201Z,9.03
2023-01-07T01:23:24.885Z,9.09
2023-01-07T01:28:25.523Z,9.15
2023-01-07T01:33:27.518Z,9.07
2023-01-07T01:38:28.189Z,8.96
2023-01-07T01:43:31.900Z,8.86
2023-01-07T01:48:38.687Z,8.76
2023-01-07T01:53:39.403Z,8.87
2023-01-07T01:58:43.176Z,8.84
2023-01-07T02:03:47.391Z,8.90
2023-01-07T02:08:51.847Z,8.85
2023-01-07T02:14:10.037Z,8.94
2023-01-07T02:19:47.305Z,8.90
2023-01-07T02:25:08.104Z,8.90
2023-01-07T02:30:41.438Z,8.93
2023-01-07T02:36:09.733Z,8.91
2023-01-07T02:41:20.938Z,8.98
2023-01-07T02:46:28.623Z,8.96
2023-01-07T02:51:34.843Z,8.93
2023-01-07T02:56:51.617Z,8.97
2023-01-07T03:02:21.065Z,8.98
2023-01-07T03:07:34.959Z,9.03
2023-01-07T03:12:41.670Z,9.11
2023-01-07T03:17:49.208Z,9.11
2023-01-07T03:22:52.746Z,9.05
2023-01-07T03:27:54.543Z,9.05
2023-01-07T03:33:01.436Z,9.34
2023-01-07T03:38:05.469Z,9.34
2023-01-07T03:43:06.137Z,9.41
2023-01-07T03:48:07.825Z,9.36
2023-01-07T03:53:12.792Z,9.37
2023-01-07T03:58:15.320Z,9.48
2023-01-07T04:03:16.012Z,9.35
2023-01-07T04:08:21.198Z,9.34
2023-01-07T04:13:22.010Z,9.14
2023-01-07T04:18:24.368Z,9.14
2023-01-07T04:23:26.454Z,9.03
2023-01-07T04:28:28.829Z,8.93
2023-01-07T04:33:29.589Z,8.88
2023-01-07T04:38:31.818Z,8.75
2023-01-07T04:43:32.640Z,8.58
2023-01-07T04:48:33.612Z,8.56
2023-01-07T04:53:35.736Z,8.43
2023-01-07T04:58:38.172Z,8.58
2023-01-07T05:03:39.084Z,8.60
2023-01-07T05:08:41.516Z,8.33
2023-01-07T05:13:42.304Z,8.26
2023-01-07T05:18:43.064Z,8.24
2023-01-07T05:23:45.603Z,8.22
2023-01-07T05:28:46.935Z,8.24
2023-01-07T05:33:47.892Z,8.25
2023-01-07T05:38:50.678Z,8.38
2023-01-07T05:43:51.467Z,8.41
2023-01-07T05:48:54.149Z,8.45
2023-01-07T05:53:56.328Z,8.45
2023-01-07T05:58:57.023Z,8.56
2023-01-07T06:03:57.700Z,8.65
2023-01-07T06:08:59.727Z,8.75
2023-01-07T06:14:00.426Z,8.70
2023-01-07T06:19:01.112Z,8.83
2023-01-07T06:24:03.137Z,8.88
2023-01-07T06:29:03.792Z,8.87
2023-01-07T06:34:04.534Z,8.93
2023-01-07T06:39:06.574Z,9.00
2023-01-07T06:44:07.597Z,8.99
2023-01-07T06:49:08.242Z,9.00
2023-01-07T06:54:11.559Z,9.03
2023-01-07T06:59:12.503Z,8.93
2023-01-07T07:04:13.191Z,8.76
2023-01-07T07:09:15.177Z,8.93
2023-01-07T07:14:15.865Z,8.82
2023-01-07T07:19:16.544Z,8.80
2023-01-07T07:24:18.522Z,8.74
2023-01-07T07:29:21.669Z,8.58
2023-01-07T07:34:22.440Z,8.39
2023-01-07T07:39:24.502Z,8.34
2023-01-07T07:44:25.274Z,8.21
2023-01-07T07:49:25.930Z,8.32
2023-01-07T07:54:28.454Z,8.31
2023-01-07T07:59:29.095Z,8.43
2023-01-07T08:04:34.000Z,8.48
2023-01-07T08:09:36.104Z,8.64
2023-01-07T08:14:37.230Z,8.68
2023-01-07T08:19:37.924Z,8.88
2023-01-07T08:24:39.907Z,8.96
2023-01-07T08:29:40.595Z,9.24
2023-01-07T08:34:41.435Z,9.44
2023-01-07T08:39:43.441Z,9.71
2023-01-07T08:44:44.154Z,9.53
2023-01-07T08:49:44.833Z,9.42
2023-01-07T08:54:48.098Z,9.50
2023-01-07T08:59:49.023Z,9.52
2023-01-07T09:04:49.723Z,9.53
2023-01-07T09:09:51.751Z,9.69
2023-01-07T09:14:53.670Z,9.73
2023-01-07T09:19:54.465Z,9.85
2023-01-07T09:24:56.492Z,9.88
2023-01-07T09:29:58.586Z,10.08
2023-01-07T09:34:59.456Z,10.08
2023-01-07T09:40:01.631Z,10.00
2023-01-07T09:45:11.691Z,9.87
2023-01-07T09:50:22.262Z,10.05
2023-01-07T09:55:32.858Z,9.63
2023-01-07T10:00:38.323Z,9.57
2023-01-07T10:05:47.968Z,9.77
2023-01-07T10:10:56.419Z,10.20
2023-01-07T10:16:04.498Z,10.36
2023-01-07T10:21:15.754Z,10.55
2023-01-07T10:26:29.078Z,10.63
2023-01-07T10:31:30.721Z,10.75
2023-01-07T10:36:39.690Z,10.78
2023-01-07T10:41:53.936Z,10.88
2023-01-07T10:47:06.464Z,10.72
2023-01-07T10:52:17.167Z,10.69
2023-01-07T10:57:22.155Z,10.80
2023-01-07T11:02:27.335Z,11.07
2023-01-07T11:07:40.269Z,11.35
2023-01-07T11:12:46.442Z,11.75
2023-01-07T11:17:49.996Z,11.72
2023-01-07T11:22:50.717Z,11.80
2023-01-07T11:27:53.374Z,11.49
2023-01-07T11:32:59.576Z,11.41
2023-01-07T11:38:01.230Z,11.45
2023-01-07T11:43:21.761Z,11.48
2023-01-07T11:48:29.977Z,11.40
2023-01-07T11:53:42.879Z,11.31
2023-01-07T11:58:47.839Z,11.35
2023-01-07T12:04:10.329Z,11.33
2023-01-07T12:09:23.602Z,11.33
2023-01-07T12:14:29.397Z,11.39
2023-01-07T12:19:50.974Z,11.36
2023-01-07T12:25:09.946Z,11.44
2023-01-07T12:30:29.991Z,11.66
2023-01-07T12:35:34.267Z,11.57
2023-01-07T12:40:41.787Z,11.60
2023-01-07T12:45:50.165Z,11.60
2023-01-07T12:50:55.225Z,11.51
2023-01-07T12:56:00.090Z,11.57
2023-01-07T13:01:08.073Z,11.55
2023-01-07T13:06:15.366Z,11.33
2023-01-07T13:11:42.655Z,11.34
2023-01-07T13:16:45.127Z,11.37
2023-01-07T13:21:49.205Z,11.42
2023-01-07T13:26:59.395Z,11.63
2023-01-07T13:32:25.675Z,11.75
2023-01-07T13:37:47.032Z,11.89
2023-01-07T13:42:53.549Z,11.97
2023-01-07T13:47:59.192Z,11.76
2023-01-07T13:53:02.796Z,11.52
2023-01-07T13:58:04.244Z,11.52
2023-01-07T14:03:35.656Z,10.96
2023-01-07T14:08:37.630Z,10.95
2023-01-07T14:13:43.989Z,10.75
2023-01-07T14:19:07.926Z,10.74
2023-01-07T14:24:26.230Z,10.67
2023-01-07T14:29:42.182Z,10.68
2023-01-07T14:34:54.910Z,10.51
2023-01-07T14:39:55.618Z,10.40
2023-01-07T14:44:56.320Z,10.24
2023-01-07T14:50:18.973Z,10.10
2023-01-07T14:55:42.441Z,9.88
2023-01-07T15:00:59.457Z,9.61
2023-01-07T15:06:25.011Z,9.55
2023-01-07T15:11:44.910Z,9.52
2023-01-07T15:16:50.182Z,9.34
2023-01-07T15:22:06.063Z,9.13
2023-01-07T15:27:14.588Z,9.11
2023-01-07T15:32:27.932Z,8.96
2023-01-07T15:37:30.106Z,8.89
2023-01-07T15:42:32.922Z,9.00
2023-01-07T15:47:39.076Z,8.94
2023-01-07T15:52:41.142Z,8.94
2023-01-07T15:57:44.037Z,8.92
2023-01-07T16:02:45.688Z,8.96
2023-01-07T16:07:53.806Z,8.83
2023-01-07T16:12:57.067Z,8.77
2023-01-07T16:17:59.669Z,8.85
2023-01-07T16:23:21.258Z,8.71
2023-01-07T16:28:24.770Z,8.59
2023-01-07T16:33:28.800Z,8.44
2023-01-07T16:38:33.548Z,8.33
2023-01-07T16:43:45.868Z,8.20
2023-01-07T16:48:47.214Z,8.39
2023-01-07T16:53:50.428Z,8.25
2023-01-07T16:58:53.949Z,8.07
2023-01-07T17:03:58.562Z,7.96
2023-01-07T17:09:00.949Z,7.81
2023-01-07T17:14:01.728Z,7.79
2023-01-07T17:19:24.352Z,7.76
2023-01-07T17:24:48.541Z,7.63
2023-01-07T17:29:50.060Z,7.52
2023-01-07T17:34:51.061Z,7.49
2023-01-07T17:39:53.183Z,7.47
2023-01-07T17:44:54.011Z,7.45
2023-01-07T17:49:54.785Z,7.32
2023-01-07T17:54:57.015Z,7.29
2023-01-07T17:59:58.135Z,7.26
2023-01-07T18:04:58.865Z,7.49
2023-01-07T18:10:00.892Z,7.52
2023-01-07T18:15:03.245Z,7.15
2023-01-07T18:20:03.990Z,6.91
2023-01-07T18:25:06.972Z,6.85
2023-01-07T18:30:11.007Z,6.95
2023-01-07T18:35:12.396Z,7.04
2023-01-07T18:40:14.707Z,6.97
2023-01-07T18:45:15.817Z,6.77
2023-01-07T18:50:18.064Z,6.64
2023-01-07T18:55:21.023Z,6.62
2023-01-07T19:00:22.181Z,6.45
2023-01-07T19:05:22.885Z,6.31
2023-01-07T19:10:26.465Z,6.11
2023-01-07T19:15:27.172Z,6.00
2023-01-07T19:20:27.865Z,5.84
2023-01-07T19:25:30.526Z,5.79
2023-01-07T19:30:31.317Z,5.68
2023-01-07T19:35:32.270Z,5.61
2023-01-07T19:40:34.362Z,5.51
2023-01-07T19:45:35.160Z,5.53
2023-01-07T19:50:35.956Z,5.39
2023-01-07T19:55:37.958Z,5.38
2023-01-07T20:00:38.637Z,5.37
2023-01-07T20:05:39.793Z,5.36
2023-01-07T20:10:43.996Z,5.25
2023-01-07T20:15:47.256Z,5.15
2023-01-07T20:20:56.092Z,5.07
2023-01-07T20:26:00.058Z,5.06
2023-01-07T20:31:00.831Z,4.99
2023-01-07T20:36:02.459Z,4.86
2023-01-07T20:41:05.596Z,4.78
2023-01-07T20:46:08.504Z,4.81
2023-01-07T20:51:10.125Z,4.73
2023-01-07T20:56:12.473Z,4.70
2023-01-07T21:01:17.320Z,4.63
2023-01-07T21:06:20.242Z,4.65
2023-01-07T21:11:24.598Z,4.62
2023-01-07T21:16:27.481Z,4.65
2023-01-07T21:21:28.426Z,4.54
2023-01-07T21:26:30.511Z,4.59
2023-01-07T21:31:31.309Z,4.59
2023-01-07T21:36:32.072Z,4.53
2023-01-07T21:41:34.172Z,4.58
2023-01-07T21:46:34.849Z,4.55
2023-01-07T21:51:35.534Z,4.57
2023-01-07T21:56:37.526Z,4.60
2023-01-07T22:01:38.516Z,4.65
2023-01-07T22:06:39.363Z,4.58
2023-01-07T22:11:42.373Z,4.70
2023-01-07T22:16:43.844Z,4.79
2023-01-07T22:21:44.576Z,4.84
2023-01-07T22:26:46.614Z,4.98
2023-01-07T22:31:49.728Z,5.08
2023-01-07T22:36:55.124Z,5.24
2023-01-07T22:42:01.478Z,5.38
2023-01-07T22:47:03.260Z,5.41
2023-01-07T22:52:04.161Z,5.43
2023-01-07T22:57:09.021Z,5.44
2023-01-07T23:02:09.880Z,5.50
2023-01-07T23:07:10.547Z,5.56
2023-01-07T23:12:13.468Z,5.59
2023-01-07T23:17:14.131Z,5.73
2023-01-07T23:22:14.818Z,5.66
2023-01-07T23:27:16.831Z,5.67
2023-01-07T23:32:17.503Z,5.68
2023-01-07T23:37:18.245Z,5.63
2023-01-07T23:42:20.287Z,5.64
2023-01-07T23:47:20.945Z,5.54
2023-01-07T23:52:21.583Z,5.60
2023-01-07T23:57:23.590Z,5.75
